createdAt,value
2022-08-01T00:00:10.177Z,98361.87
2022-08-01T00:02:39.356Z,98359.02
2022-08-01T00:05:08.561Z,98358.58
2022-08-01T00:07:36.205Z,98357.84
2022-08-01T00:10:07.211Z,98356.30
2022-08-01T00:12:34.503Z,98354.92
2022-08-01T00:15:01.787Z,98354.20
2022-08-01T00:17:28.797Z,98357.02
2022-08-01T00:19:55.693Z,98353.58
2022-08-01T00:22:22.505Z,98356.02
2022-08-01T00:24:49.958Z,98351.81
2022-08-01T00:27:16.815Z,98358.83
2022-08-01T00:30:12.695Z,98355.59
2022-08-01T00:32:33.024Z,98348.21
2022-08-01T00:34:59.870Z,98351.55
2022-08-01T00:37:26.766Z,98347.44
2022-08-01T00:39:53.694Z,98346.55
2022-08-01T00:42:20.806Z,98344.42
2022-08-01T00:44:47.785Z,98342.70
2022-08-01T00:47:14.672Z,98342.17
2022-08-01T00:49:41.562Z,98340.48
2022-08-01T00:52:09.615Z,98342.96
2022-08-01T00:54:37.126Z,98342.83
2022-08-01T00:57:04.799Z,98342.99
2022-08-01T00:59:35.998Z,98346.77
2022-08-01T01:02:04.290Z,98347.16
2022-08-01T01:04:41.488Z,98344.55
2022-08-01T01:07:20.751Z,98345.65
2022-08-01T01:10:19.040Z,98346.84
2022-08-01T01:13:05.229Z,98348.30
2022-08-01T01:15:41.290Z,98347.07
2022-08-01T01:18:26.577Z,98343.50
2022-08-01T01:21:04.653Z,98348.82
2022-08-01T01:23:45.640Z,98343.73
2022-08-01T01:26:16.479Z,98344.54
2022-08-01T01:29:02.861Z,98344.07
2022-08-01T01:31:32.164Z,98345.73
2022-08-01T01:34:01.067Z,98342.68
2022-08-01T01:36:31.610Z,98344.91
2022-08-01T01:38:59.663Z,98350.64
2022-08-01T01:41:28.158Z,98349.46
2022-08-01T01:43:55.733Z,98350.17
2022-08-01T01:46:28.190Z,98346.16
2022-08-01T01:48:57.860Z,98348.44
2022-08-01T01:51:28.526Z,98346.49
2022-08-01T01:53:57.937Z,98347.08
2022-08-01T01:56:26.808Z,98346.31
2022-08-01T01:58:57.672Z,98341.27
2022-08-01T02:01:58.437Z,98338.81
2022-08-01T02:04:15.794Z,98340.13
2022-08-01T02:06:43.954Z,98342.55
2022-08-01T02:09:11.741Z,98340.25
2022-08-01T02:12:08.178Z,98337.77
2022-08-01T02:14:29.986Z,98338.29
2022-08-01T02:17:00.350Z,98339.98
2022-08-01T02:19:27.372Z,98342.09
2022-08-01T02:22:01.691Z,98340.73
2022-08-01T02:24:38.058Z,98339.90
2022-08-01T02:27:16.789Z,98342.05
2022-08-01T02:29:54.343Z,98338.79
2022-08-01T02:32:26.652Z,98342.97
2022-08-01T02:34:57.006Z,98345.71
2022-08-01T02:37:27.656Z,98347.48
2022-08-01T02:39:56.122Z,98350.75
2022-08-01T02:42:25.183Z,98350.89
2022-08-01T02:44:55.020Z,98348.29
2022-08-01T02:47:24.376Z,98349.48
2022-08-01T02:49:54.007Z,98347.45
2022-08-01T02:52:24.353Z,98352.38
2022-08-01T02:54:55.700Z,98350.86
2022-08-01T02:57:28.989Z,98350.98
2022-08-01T03:00:07.659Z,98349.27
2022-08-01T03:02:37.004Z,98352.02
2022-08-01T03:05:04.865Z,98349.61
2022-08-01T03:07:40.419Z,98352.02
2022-08-01T03:10:10.867Z,98350.85
2022-08-01T03:12:40.327Z,98355.34
2022-08-01T03:15:10.465Z,98355.61
2022-08-01T03:17:40.241Z,98357.63
2022-08-01T03:20:09.851Z,98358.08
2022-08-01T03:22:38.412Z,98359.98
2022-08-01T03:25:07.417Z,98358.39
2022-08-01T03:27:37.412Z,98365.52
2022-08-01T03:30:06.266Z,98362.48
2022-08-01T03:32:33.310Z,98367.74
2022-08-01T03:35:00.195Z,98364.45
2022-08-01T03:38:00.281Z,98365.72
2022-08-01T03:40:53.109Z,98364.86
2022-08-01T03:43:31.571Z,98367.02
2022-08-01T03:46:08.595Z,98361.30
2022-08-01T03:48:41.928Z,98359.69
2022-08-01T03:51:10.884Z,98372.23
2022-08-01T03:53:41.198Z,98374.13
2022-08-01T03:56:11.262Z,98376.89
2022-08-01T03:58:41.274Z,98381.36
2022-08-01T04:01:15.554Z,98383.19
2022-08-01T04:03:44.362Z,98381.44
2022-08-01T04:06:11.784Z,98383.09
2022-08-01T04:08:39.558Z,98383.60
2022-08-01T04:11:06.722Z,98384.22
2022-08-01T04:13:36.680Z,98386.57
2022-08-01T04:16:04.743Z,98386.05
2022-08-01T04:18:31.613Z,98387.99
2022-08-01T04:20:59.125Z,98386.92
2022-08-01T04:23:28.636Z,98387.56
2022-08-01T04:25:57.082Z,98391.40
2022-08-01T04:28:24.771Z,98385.00
2022-08-01T04:30:58.496Z,98381.12
2022-08-01T04:33:31.089Z,98380.59
2022-08-01T04:36:03.994Z,98380.42
2022-08-01T04:38:34.536Z,98379.63
2022-08-01T04:41:09.136Z,98377.01
2022-08-01T04:43:37.908Z,98375.94
2022-08-01T04:46:06.573Z,98376.76
2022-08-01T04:48:35.597Z,98375.66
2022-08-01T04:51:02.500Z,98376.89
2022-08-01T04:53:29.515Z,98369.20
2022-08-01T04:55:56.796Z,98368.23
2022-08-01T04:58:23.664Z,98369.95
2022-08-01T05:00:51.009Z,98374.30
2022-08-01T05:03:17.928Z,98376.31
2022-08-01T05:05:44.908Z,98372.95
2022-08-01T05:08:11.772Z,98372.02
2022-08-01T05:10:39.047Z,98367.33
2022-08-01T05:13:07.675Z,98369.10
2022-08-01T05:15:37.797Z,98374.26
2022-08-01T05:18:05.131Z,98377.42
2022-08-01T05:20:35.585Z,98379.79
2022-08-01T05:23:03.203Z,98374.77
2022-08-01T05:25:56.119Z,98369.33
2022-08-01T05:28:19.219Z,98373.05
2022-08-01T05:30:46.514Z,98372.11
2022-08-01T05:33:13.448Z,98370.07
2022-08-01T05:35:49.018Z,98371.81
2022-08-01T05:38:16.924Z,98368.71
2022-08-01T05:40:43.799Z,98369.10
2022-08-01T05:43:10.628Z,98365.52
2022-08-01T05:45:38.077Z,98365.59
2022-08-01T05:48:05.223Z,98364.20
2022-08-01T05:50:35.039Z,98365.35
2022-08-01T05:53:02.301Z,98362.02
2022-08-01T05:55:29.332Z,98356.42
2022-08-01T05:57:56.773Z,98358.29
2022-08-01T06:00:23.971Z,98358.98
2022-08-01T06:02:50.904Z,98366.36
2022-08-01T06:05:17.850Z,98371.66
2022-08-01T06:07:44.706Z,98376.25
2022-08-01T06:10:12.019Z,98373.34
2022-08-01T06:12:39.534Z,98373.50
2022-08-01T06:15:07.774Z,98376.91
2022-08-01T06:17:34.962Z,98378.18
2022-08-01T06:20:01.802Z,98373.17
2022-08-01T06:22:28.977Z,98371.83
2022-08-01T06:24:57.743Z,98370.61
2022-08-01T06:27:26.026Z,98375.41
2022-08-01T06:29:54.647Z,98371.36
2022-08-01T06:32:26.398Z,98370.36
2022-08-01T06:34:54.184Z,98372.55
2022-08-01T06:37:21.041Z,98372.30
2022-08-01T06:39:48.008Z,98375.27
2022-08-01T06:42:16.004Z,98376.83
2022-08-01T06:44:42.868Z,98380.17
2022-08-01T06:47:09.671Z,98380.67
2022-08-01T06:49:36.648Z,98378.69
2022-08-01T06:52:05.258Z,98378.76
2022-08-01T06:54:32.412Z,98378.14
2022-08-01T06:56:59.624Z,98381.56
2022-08-01T06:59:26.491Z,98381.08
2022-08-01T07:01:53.292Z,98384.85
2022-08-01T07:04:20.148Z,98376.27
2022-08-01T07:06:46.932Z,98373.84
2022-08-01T07:09:14.632Z,98374.81
2022-08-01T07:11:42.269Z,98374.27
2022-08-01T07:14:09.196Z,98372.36
2022-08-01T07:16:36.003Z,98366.06
2022-08-01T07:19:02.902Z,98372.92
2022-08-01T07:21:40.708Z,98377.67
2022-08-01T07:24:13.810Z,98375.83
2022-08-01T07:26:52.710Z,98373.09
2022-08-01T07:29:22.936Z,98374.21
2022-08-01T07:31:49.804Z,98367.52
2022-08-01T07:34:16.603Z,98365.26
2022-08-01T07:36:43.780Z,98370.15
2022-08-01T07:39:11.030Z,98371.05
2022-08-01T07:41:53.232Z,98369.89
2022-08-01T07:44:24.687Z,98364.89
2022-08-01T07:46:56.160Z,98366.71
2022-08-01T07:49:23.230Z,98365.50
2022-08-01T07:52:04.010Z,98360.83
2022-08-01T07:54:33.387Z,98356.64
2022-08-01T07:57:02.229Z,98365.52
2022-08-01T07:59:29.201Z,98359.00
2022-08-01T08:01:56.197Z,98358.36
2022-08-01T08:04:23.021Z,98357.41
2022-08-01T08:06:50.293Z,98353.77
2022-08-01T08:09:17.378Z,98352.52
2022-08-01T08:11:47.796Z,98346.80
2022-08-01T08:14:16.325Z,98346.90
2022-08-01T08:16:44.405Z,98343.91
2022-08-01T08:19:12.173Z,98343.58
2022-08-01T08:21:39.883Z,98344.48
2022-08-01T08:24:26.385Z,98339.92
2022-08-01T08:26:58.382Z,98339.33
2022-08-01T08:29:26.668Z,98335.41
2022-08-01T08:32:04.043Z,98338.50
2022-08-01T08:34:31.698Z,98333.46
2022-08-01T08:37:00.144Z,98334.77
2022-08-01T08:39:30.539Z,98330.92
2022-08-01T08:42:00.845Z,98330.31
2022-08-01T08:44:27.785Z,98330.55
2022-08-01T08:46:57.151Z,98332.10
2022-08-01T08:49:35.398Z,98329.84
2022-08-01T08:52:03.690Z,98331.77
2022-08-01T08:54:32.399Z,98331.42
2022-08-01T08:57:01.435Z,98328.89
2022-08-01T08:59:29.540Z,98332.05
2022-08-01T09:01:58.339Z,98336.05
2022-08-01T09:04:26.951Z,98335.06
2022-08-01T09:06:55.613Z,98341.95
2022-08-01T09:09:23.447Z,98337.01
2022-08-01T09:11:57.196Z,98339.63
2022-08-01T09:14:27.348Z,98336.29
2022-08-01T09:17:13.846Z,98333.95
2022-08-01T09:19:45.476Z,98329.86
2022-08-01T09:22:15.399Z,98333.41
2022-08-01T09:24:42.855Z,98331.21
2022-08-01T09:27:21.931Z,98328.42
2022-08-01T09:30:01.110Z,98330.76
2022-08-01T09:32:35.667Z,98336.20
2022-08-01T09:35:30.625Z,98337.30
2022-08-01T09:38:14.806Z,98334.35
2022-08-01T09:40:59.255Z,98337.47
2022-08-01T09:43:28.657Z,98342.33
2022-08-01T09:45:57.955Z,98347.52
2022-08-01T09:48:28.030Z,98344.95
2022-08-01T09:51:04.837Z,98341.36
2022-08-01T09:53:51.297Z,98337.13
2022-08-01T09:56:21.819Z,98339.48
2022-08-01T09:59:00.953Z,98342.00
2022-08-01T10:01:42.501Z,98343.80
2022-08-01T10:04:16.910Z,98344.79
2022-08-01T10:06:50.705Z,98347.00
2022-08-01T10:09:36.055Z,98345.09
2022-08-01T10:12:08.812Z,98347.24
2022-08-01T10:14:38.678Z,98346.77
2022-08-01T10:17:11.028Z,98347.61
2022-08-01T10:19:46.856Z,98347.42
2022-08-01T10:22:17.814Z,98345.19
2022-08-01T10:24:48.307Z,98344.49
2022-08-01T10:27:24.539Z,98350.16
2022-08-01T10:30:15.421Z,98348.39
2022-08-01T10:32:50.687Z,98351.58
2022-08-01T10:35:45.992Z,98350.31
2022-08-01T10:38:06.392Z,98352.13
2022-08-01T10:40:38.966Z,98349.96
2022-08-01T10:43:07.858Z,98347.77
2022-08-01T10:45:35.662Z,98347.27
2022-08-01T10:48:16.251Z,98343.94
2022-08-01T10:50:52.439Z,98345.98
2022-08-01T10:53:24.148Z,98346.33
2022-08-01T10:56:02.368Z,98344.47
2022-08-01T10:58:39.452Z,98344.85
2022-08-01T11:01:16.109Z,98337.11
2022-08-01T11:03:57.040Z,98334.89
2022-08-01T11:06:36.577Z,98338.38
2022-08-01T11:09:16.772Z,98336.20
2022-08-01T11:12:08.235Z,98335.56
2022-08-01T11:15:00.016Z,98335.91
2022-08-01T11:17:54.803Z,98335.59
2022-08-01T11:20:25.010Z,98333.77
2022-08-01T11:23:02.941Z,98334.88
2022-08-01T11:26:05.226Z,98334.99
2022-08-01T11:28:32.677Z,98335.92
2022-08-01T11:31:07.627Z,98331.09
2022-08-01T11:33:45.918Z,98335.57
2022-08-01T11:36:15.487Z,98335.50
2022-08-01T11:38:49.101Z,98332.15
2022-08-01T11:41:38.336Z,98333.85
2022-08-01T11:44:10.220Z,98331.95
2022-08-01T11:46:56.612Z,98333.77
2022-08-01T11:49:41.946Z,98334.86
2022-08-01T11:52:12.138Z,98335.96
2022-08-01T11:54:56.054Z,98337.08
2022-08-01T11:57:33.897Z,98341.30
2022-08-01T12:00:08.612Z,98336.34
2022-08-01T12:02:41.658Z,98331.99
2022-08-01T12:05:15.534Z,98331.70
2022-08-01T12:07:44.091Z,98331.64
2022-08-01T12:10:16.536Z,98328.66
2022-08-01T12:12:50.289Z,98325.73
2022-08-01T12:15:19.257Z,98325.52
2022-08-01T12:17:58.344Z,98323.87
2022-08-01T12:20:31.139Z,98323.85
2022-08-01T12:23:01.391Z,98324.20
2022-08-01T12:25:28.746Z,98323.52
2022-08-01T12:27:57.081Z,98323.98
2022-08-01T12:30:25.425Z,98326.54
2022-08-01T12:32:54.016Z,98324.98
2022-08-01T12:35:24.317Z,98323.73
2022-08-01T12:37:54.319Z,98323.45
2022-08-01T12:40:24.859Z,98319.30
2022-08-01T12:42:54.331Z,98316.35
2022-08-01T12:45:26.313Z,98310.14
2022-08-01T12:47:55.230Z,98308.87
2022-08-01T12:50:24.898Z,98308.86
2022-08-01T12:52:52.611Z,98306.64
2022-08-01T12:55:21.920Z,98304.02
2022-08-01T12:57:52.657Z,98301.54
2022-08-01T13:00:25.160Z,98298.48
2022-08-01T13:03:04.870Z,98296.61
2022-08-01T13:05:48.304Z,98297.41
2022-08-01T13:08:17.810Z,98291.71
2022-08-01T13:10:45.066Z,98290.23
2022-08-01T13:13:22.068Z,98286.15
2022-08-01T13:16:03.952Z,98280.73
2022-08-01T13:18:33.597Z,98277.55
2022-08-01T13:21:17.485Z,98276.23
2022-08-01T13:24:03.366Z,98278.76
2022-08-01T13:26:49.437Z,98280.05
2022-08-01T13:29:18.784Z,98274.15
2022-08-01T13:31:45.893Z,98278.51
2022-08-01T13:34:13.489Z,98274.54
2022-08-01T13:36:45.506Z,98278.04
2022-08-01T13:39:31.356Z,98270.66
2022-08-01T13:41:59.170Z,98268.07
2022-08-01T13:44:26.137Z,98272.14
2022-08-01T13:46:52.984Z,98269.61
2022-08-01T13:49:20.155Z,98274.63
2022-08-01T13:51:47.522Z,98281.89
2022-08-01T13:54:14.914Z,98279.27
2022-08-01T13:56:42.588Z,98274.42
2022-08-01T13:59:09.445Z,98271.90
2022-08-01T14:01:36.655Z,98278.73
2022-08-01T14:04:03.912Z,98279.59
2022-08-01T14:06:32.058Z,98274.37
2022-08-01T14:08:59.013Z,98276.35
2022-08-01T14:11:25.805Z,98273.95
2022-08-01T14:13:57.707Z,98279.88
2022-08-01T14:16:24.711Z,98280.20
2022-08-01T14:18:51.659Z,98274.91
2022-08-01T14:21:18.455Z,98276.17
2022-08-01T14:23:45.254Z,98283.77
2022-08-01T14:26:12.708Z,98289.25
2022-08-01T14:28:41.324Z,98290.27
2022-08-01T14:31:09.042Z,98289.55
2022-08-01T14:33:36.059Z,98292.95
2022-08-01T14:36:20.581Z,98287.98
2022-08-01T14:38:50.926Z,98290.55
2022-08-01T14:41:17.713Z,98292.31
2022-08-01T14:43:44.560Z,98297.95
2022-08-01T14:46:12.527Z,98293.45
2022-08-01T14:48:39.650Z,98294.37
2022-08-01T14:51:08.257Z,98290.20
2022-08-01T14:53:37.476Z,98294.85
2022-08-01T14:56:05.072Z,98297.42
2022-08-01T14:58:31.973Z,98293.48
2022-08-01T15:00:59.543Z,98292.27
2022-08-01T15:03:27.447Z,98293.27
2022-08-01T15:05:54.927Z,98291.33
2022-08-01T15:08:21.741Z,98291.30
2022-08-01T15:10:48.623Z,98293.48
2022-08-01T15:13:15.976Z,98293.59
2022-08-01T15:15:42.790Z,98297.92
2022-08-01T15:18:09.999Z,98297.39
2022-08-01T15:20:36.880Z,98297.91
2022-08-01T15:23:03.814Z,98300.81
2022-08-01T15:25:41.210Z,98306.36
2022-08-01T15:28:11.406Z,98303.98
2022-08-01T15:30:38.880Z,98304.44
2022-08-01T15:33:06.326Z,98312.42
2022-08-01T15:35:33.181Z,98312.34
2022-08-01T15:38:00.348Z,98309.96
2022-08-01T15:40:27.910Z,98310.81
2022-08-01T15:42:54.897Z,98315.95
2022-08-01T15:45:47.532Z,98320.62
2022-08-01T15:48:09.609Z,98318.86
2022-08-01T15:50:38.719Z,98313.30
2022-08-01T15:53:07.388Z,98305.14
2022-08-01T15:55:39.046Z,98302.89
2022-08-01T15:58:07.646Z,98299.16
2022-08-01T16:00:39.320Z,98299.90
2022-08-01T16:03:08.161Z,98299.13
2022-08-01T16:05:41.039Z,98307.05
2022-08-01T16:08:13.584Z,98312.64
2022-08-01T16:10:40.941Z,98315.61
2022-08-01T16:13:08.303Z,98320.07
2022-08-01T16:15:37.966Z,98319.92
2022-08-01T16:18:08.419Z,98317.25
2022-08-01T16:20:36.851Z,98315.51
2022-08-01T16:23:06.389Z,98317.05
2022-08-01T16:25:33.474Z,98318.52
2022-08-01T16:28:00.344Z,98321.34
2022-08-01T16:30:27.937Z,98326.70
2022-08-01T16:32:59.905Z,98325.73
2022-08-01T16:35:36.585Z,98324.08
2022-08-01T16:38:05.816Z,98326.25
2022-08-01T16:40:46.703Z,98328.35
2022-08-01T16:43:16.521Z,98330.88
2022-08-01T16:45:44.111Z,98332.84
2022-08-01T16:48:12.582Z,98335.30
2022-08-01T16:50:39.515Z,98339.55
2022-08-01T16:53:06.474Z,98337.71
2022-08-01T16:55:49.433Z,98336.24
2022-08-01T16:58:19.207Z,98339.73
2022-08-01T17:00:56.598Z,98340.61
2022-08-01T17:03:46.594Z,98339.27
2022-08-01T17:06:13.343Z,98342.63
2022-08-01T17:08:46.539Z,98344.23
2022-08-01T17:11:15.338Z,98344.02
2022-08-01T17:13:42.688Z,98352.23
2022-08-01T17:16:09.940Z,98353.50
2022-08-01T17:18:36.888Z,98354.28
2022-08-01T17:21:04.040Z,98353.16
2022-08-01T17:23:31.991Z,98353.35
2022-08-01T17:25:59.760Z,98354.10
2022-08-01T17:28:26.846Z,98362.67
2022-08-01T17:30:53.792Z,98365.44
2022-08-01T17:33:20.755Z,98362.08
2022-08-01T17:35:47.567Z,98361.91
2022-08-01T17:38:14.821Z,98365.56
2022-08-01T17:40:42.015Z,98362.38
2022-08-01T17:43:09.144Z,98363.48
2022-08-01T17:45:50.294Z,98369.48
2022-08-01T17:48:19.410Z,98370.84
2022-08-01T17:50:48.660Z,98366.21
2022-08-01T17:53:21.168Z,98365.73
2022-08-01T17:55:55.835Z,98370.73
2022-08-01T17:58:48.871Z,98368.80
2022-08-01T18:01:12.358Z,98370.77
2022-08-01T18:03:41.431Z,98371.08
2022-08-01T18:06:09.849Z,98378.30
2022-08-01T18:08:40.531Z,98389.15
2022-08-01T18:11:08.083Z,98393.98
2022-08-01T18:13:36.347Z,98394.36
2022-08-01T18:16:07.275Z,98397.46
2022-08-01T18:18:34.380Z,98396.31
2022-08-01T18:21:02.121Z,98399.99
2022-08-01T18:23:28.915Z,98400.91
2022-08-01T18:25:55.761Z,98398.98
2022-08-01T18:28:30.955Z,98401.09
2022-08-01T18:31:00.911Z,98402.81
2022-08-01T18:33:27.989Z,98402.41
2022-08-01T18:36:03.600Z,98402.82
2022-08-01T18:38:32.813Z,98403.27
2022-08-01T18:41:01.334Z,98406.09
2022-08-01T18:43:28.801Z,98406.48
2022-08-01T18:45:57.630Z,98404.23
2022-08-01T18:48:24.899Z,98408.02
2022-08-01T18:50:54.026Z,98410.59
2022-08-01T18:53:23.931Z,98416.59
2022-08-01T18:55:51.006Z,98418.69
2022-08-01T18:58:17.953Z,98417.61
2022-08-01T19:00:45.001Z,98427.20
2022-08-01T19:03:13.811Z,98428.40
2022-08-01T19:05:40.897Z,98429.38
2022-08-01T19:08:08.197Z,98430.04
2022-08-01T19:10:37.149Z,98437.33
2022-08-01T19:13:04.268Z,98440.70
2022-08-01T19:15:31.376Z,98444.42
2022-08-01T19:17:58.234Z,98442.71
2022-08-01T19:20:25.232Z,98443.59
2022-08-01T19:22:52.039Z,98443.71
2022-08-01T19:25:18.931Z,98447.33
2022-08-01T19:27:47.840Z,98454.83
2022-08-01T19:30:16.618Z,98451.89
2022-08-01T19:32:45.965Z,98454.73
2022-08-01T19:35:15.002Z,98455.86
2022-08-01T19:37:47.386Z,98454.16
2022-08-01T19:40:27.680Z,98449.75
2022-08-01T19:42:56.951Z,98459.71
2022-08-01T19:45:25.176Z,98460.98
2022-08-01T19:47:56.395Z,98469.18
2022-08-01T19:50:26.896Z,98465.48
2022-08-01T19:52:55.827Z,98467.41
2022-08-01T19:55:23.779Z,98471.36
2022-08-01T19:58:24.148Z,98469.18
2022-08-01T20:00:41.382Z,98468.92
2022-08-01T20:03:09.966Z,98467.50
2022-08-01T20:05:37.441Z,98472.64
2022-08-01T20:08:07.618Z,98478.80
2022-08-01T20:10:37.637Z,98481.69
2022-08-01T20:13:10.129Z,98481.88
2022-08-01T20:15:39.065Z,98489.52
2022-08-01T20:18:07.707Z,98489.83
2022-08-01T20:20:36.893Z,98490.98
2022-08-01T20:23:09.469Z,98492.06
2022-08-01T20:25:37.378Z,98492.52
2022-08-01T20:28:10.927Z,98495.89
2022-08-01T20:30:39.758Z,98500.49
2022-08-01T20:33:09.770Z,98499.91
2022-08-01T20:35:53.542Z,98501.40
2022-08-01T20:38:23.914Z,98501.73
2022-08-01T20:40:58.943Z,98502.11
2022-08-01T20:43:27.965Z,98501.50
2022-08-01T20:45:56.333Z,98497.80
2022-08-01T20:48:26.077Z,98497.60
2022-08-01T20:51:10.165Z,98496.54
2022-08-01T20:53:41.900Z,98496.65
2022-08-01T20:56:26.851Z,98493.84
2022-08-01T20:59:11.020Z,98492.85
2022-08-01T21:02:02.598Z,98491.96
2022-08-01T21:04:57.759Z,98498.70
2022-08-01T21:07:27.593Z,98501.60
2022-08-01T21:10:58.457Z,98498.88
2022-08-01T21:13:38.226Z,98497.59
2022-08-01T21:16:38.881Z,98497.79
2022-08-01T21:19:21.635Z,98490.36
2022-08-01T21:21:54.386Z,98496.56
2022-08-01T21:24:26.977Z,98497.34
2022-08-01T21:26:56.117Z,98501.52
2022-08-01T21:29:25.540Z,98503.89
2022-08-01T21:32:11.647Z,98503.85
2022-08-01T21:34:39.851Z,98507.59
2022-08-01T21:37:09.866Z,98510.58
2022-08-01T21:39:38.303Z,98511.63
2022-08-01T21:42:09.192Z,98517.71
2022-08-01T21:44:39.361Z,98517.52
2022-08-01T21:47:11.635Z,98524.19
2022-08-01T21:49:40.934Z,98528.79
2022-08-01T21:52:18.167Z,98522.45
2022-08-01T21:55:10.998Z,98523.98
2022-08-01T21:58:03.642Z,98522.26
2022-08-01T22:00:30.922Z,98520.54
2022-08-01T22:03:06.760Z,98522.34
2022-08-01T22:05:49.657Z,98522.14
2022-08-01T22:08:34.836Z,98524.06
2022-08-01T22:11:14.665Z,98526.48
2022-08-01T22:13:42.231Z,98522.85
2022-08-01T22:16:12.299Z,98518.69
2022-08-01T22:18:39.313Z,98518.34
2022-08-01T22:21:06.548Z,98515.56
2022-08-01T22:23:36.919Z,98511.55
2022-08-01T22:26:07.292Z,98504.19
2022-08-01T22:28:36.111Z,98500.15
2022-08-01T22:31:03.324Z,98497.47
2022-08-01T22:33:30.991Z,98503.83
2022-08-01T22:35:59.443Z,98508.13
2022-08-01T22:38:26.403Z,98507.78
2022-08-01T22:41:00.617Z,98507.69
2022-08-01T22:43:31.458Z,98505.30
2022-08-01T22:46:06.270Z,98509.63
2022-08-01T22:48:44.421Z,98508.10
2022-08-01T22:51:32.251Z,98512.27
2022-08-01T22:54:05.956Z,98513.60
2022-08-01T22:56:39.058Z,98510.59
2022-08-01T22:59:12.452Z,98515.36
2022-08-01T23:01:47.939Z,98513.02
2022-08-01T23:04:30.756Z,98513.02
2022-08-01T23:07:05.339Z,98504.95
2022-08-01T23:09:39.324Z,98507.52
2022-08-01T23:12:24.460Z,98507.09
2022-08-01T23:14:57.609Z,98509.73
2022-08-01T23:17:29.087Z,98514.52
2022-08-01T23:20:06.878Z,98511.09
2022-08-01T23:22:36.289Z,98515.27
2022-08-01T23:25:07.418Z,98510.64
2022-08-01T23:27:51.884Z,98512.16
2022-08-01T23:30:27.489Z,98514.55
2022-08-01T23:32:56.018Z,98515.30
2022-08-01T23:35:24.481Z,98520.89
2022-08-01T23:37:52.093Z,98519.20
2022-08-01T23:40:19.665Z,98520.64
2022-08-01T23:42:46.819Z,98521.43
2022-08-01T23:45:13.907Z,98521.98
2022-08-01T23:47:40.731Z,98525.40
2022-08-01T23:50:08.678Z,98528.80
2022-08-01T23:52:42.593Z,98532.62
2022-08-01T23:55:16.825Z,98538.39
2022-08-01T23:57:44.298Z,98539.27
